Time;durP1;ratioP1;P1;durP2;ratioP2;P2;SDS_P1;SDS_P2;PMS_P1;PMS_P2;Temp;Humidity;BMP_temperature;BMP_pressure;BME280_temperature;BME280_humidity;BME280_pressure;Samples;Min_cycle;Max_cycle;Signal;HPM_P1;HPM_P2
2021/07/23 00:00:35;;;;;;;5.73;3.40;;;;;;;16.98;100.00;101355.41;4994010;28;20461;-73
2021/07/23 00:03:02;;;;;;;6.40;3.30;;;;;;;16.99;100.00;101359.75;4994105;28;20476;-72
2021/07/23 00:05:29;;;;;;;4.80;3.37;;;;;;;16.98;100.00;101363.63;4994045;28;20437;-73
2021/07/23 00:07:55;;;;;;;8.17;3.47;;;;;;;16.86;99.24;101358.81;4994027;28;20445;-73
2021/07/23 00:10:22;;;;;;;6.60;3.43;;;;;;;16.79;98.52;101359.31;4993495;28;20897;-73
2021/07/23 00:12:48;;;;;;;6.90;3.40;;;;;;;16.73;96.75;101351.59;4993952;28;20433;-72
2021/07/23 00:15:14;;;;;;;4.60;3.03;;;;;;;16.67;96.23;101353.66;4993431;28;20956;-72
2021/07/23 00:17:41;;;;;;;6.07;3.03;;;;;;;16.65;96.79;101358.66;4993959;28;20437;-73
2021/07/23 00:20:09;;;;;;;4.90;2.90;;;;;;;16.59;97.95;101349.00;4993783;28;20460;-72
2021/07/23 00:22:37;;;;;;;6.70;3.37;;;;;;;16.56;98.84;101349.66;4993556;28;20946;-73
2021/07/23 00:25:04;;;;;;;4.03;3.40;;;;;;;16.58;99.23;101348.19;4993881;28;20468;-72
2021/07/23 00:27:31;;;;;;;5.50;3.60;;;;;;;16.58;99.42;101347.41;4993810;28;20445;-72
2021/07/23 00:29:57;;;;;;;7.57;3.03;;;;;;;16.58;99.77;101356.41;4993760;28;20567;-72
2021/07/23 00:32:24;;;;;;;5.37;2.77;;;;;;;16.55;100.00;101348.03;4994095;28;20441;-73
2021/07/23 00:34:50;;;;;;;9.00;3.50;;;;;;;16.53;99.83;101342.88;4993668;28;20493;-73
2021/07/23 00:37:18;;;;;;;4.53;3.10;;;;;;;16.42;100.00;101341.59;4993716;28;20448;-72
2021/07/23 00:39:44;;;;;;;4.27;3.03;;;;;;;16.44;100.00;101346.75;4993645;28;20472;-72
2021/07/23 00:42:11;;;;;;;5.43;3.80;;;;;;;16.43;99.78;101339.69;4993736;28;20468;-72
2021/07/23 00:44:38;;;;;;;6.60;3.60;;;;;;;16.34;100.00;101345.94;4993409;28;20444;-72
2021/07/23 00:47:04;;;;;;;7.83;3.63;;;;;;;16.30;100.00;101342.25;4995231;28;20491;-72
2021/07/23 00:49:31;;;;;;;5.70;3.87;;;;;;;16.24;99.98;101337.25;4997519;28;20456;-72
2021/07/23 00:51:58;;;;;;;5.13;3.07;;;;;;;16.22;99.44;101351.25;4997576;28;20463;-72
2021/07/23 00:54:26;;;;;;;5.50;4.03;;;;;;;16.18;98.97;101344.00;4997517;28;20451;-72
2021/07/23 00:56:53;;;;;;;3.50;2.50;;;;;;;16.12;98.63;101352.38;4997137;28;20480;-72
2021/07/23 00:59:19;;;;;;;6.20;2.90;;;;;;;16.13;96.08;101350.44;4997476;28;20449;-72
2021/07/23 01:01:47;;;;;;;3.60;2.57;;;;;;;16.08;95.39;101345.94;4997318;28;20473;-72
2021/07/23 01:04:14;;;;;;;7.70;2.80;;;;;;;16.07;95.75;101346.22;4997353;28;20447;-72
2021/07/23 01:06:41;;;;;;;5.83;3.43;;;;;;;16.06;97.01;101348.16;4997296;28;20452;-72
2021/07/23 01:09:07;;;;;;;5.20;3.10;;;;;;;16.10;97.97;101338.19;4997236;28;20455;-73
2021/07/23 01:11:35;;;;;;;6.30;3.60;;;;;;;16.12;99.57;101349.63;4996579;28;20500;-72
2021/07/23 01:14:03;;;;;;;5.90;3.10;;;;;;;16.16;99.48;101344.34;4997024;28;20461;-72
2021/07/23 01:16:31;;;;;;;5.87;3.17;;;;;;;16.19;99.83;101343.69;4997101;28;20587;-71
2021/07/23 01:18:58;;;;;;;3.30;2.00;;;;;;;16.22;100.00;101351.25;4997016;28;20448;-71
2021/07/23 01:21:25;;;;;;;5.73;3.30;;;;;;;16.10;100.00;101337.41;4997004;28;20465;-71
2021/07/23 01:23:53;;;;;;;5.30;3.47;;;;;;;16.17;100.00;101342.41;4997004;28;20440;-71
2021/07/23 01:26:19;;;;;;;5.73;3.30;;;;;;;16.25;100.00;101338.88;4998035;28;20445;-71
2021/07/23 01:28:47;;;;;;;4.97;3.10;;;;;;;16.27;100.00;101334.69;4996920;28;20452;-71
2021/07/23 01:31:14;;;;;;;5.83;3.30;;;;;;;16.30;100.00;101325.03;4996790;28;20468;-71
2021/07/23 01:33:40;;;;;;;5.47;3.10;;;;;;;16.29;100.00;101320.69;4996797;28;20444;-71
2021/07/23 01:36:06;;;;;;;7.90;3.87;;;;;;;16.25;100.00;101334.22;4996712;28;20484;-71
2021/07/23 01:38:34;;;;;;;6.87;2.97;;;;;;;16.17;100.00;101332.28;4996470;28;20848;-72
2021/07/23 01:41:02;;;;;;;6.83;3.20;;;;;;;16.13;100.00;101334.03;4996279;28;20460;-72
2021/07/23 01:43:28;;;;;;;9.07;3.50;;;;;;;16.17;100.00;101332.28;4995897;28;20958;-72
2021/07/23 01:45:56;;;;;;;5.47;4.03;;;;;;;16.14;100.00;101324.69;4996646;28;20499;-72
2021/07/23 01:48:23;;;;;;;5.27;2.83;;;;;;;16.04;100.00;101325.03;4996584;28;20449;-72
2021/07/23 01:50:49;;;;;;;9.53;4.23;;;;;;;16.09;100.00;101322.13;4996478;28;20465;-72
2021/07/23 01:53:16;;;;;;;5.40;2.70;;;;;;;16.21;100.00;101326.97;4996129;28;20445;-72
2021/07/23 01:55:44;;;;;;;5.13;3.20;;;;;;;16.23;100.00;101319.25;4996351;28;20484;-72
2021/07/23 01:58:12;;;;;;;8.47;3.43;;;;;;;16.11;100.00;101334.38;4994914;28;20442;-72
2021/07/23 02:00:38;;;;;;;4.07;3.10;;;;;;;16.06;100.00;101329.03;4996278;28;20469;-71
2021/07/23 02:03:05;;;;;;;5.10;2.47;;;;;;;16.11;98.37;101325.34;4996316;28;20449;-71
2021/07/23 02:05:31;;;;;;;5.27;3.63;;;;;;;16.05;95.86;101321.97;4996251;28;20520;-72
2021/07/23 02:07:59;;;;;;;4.43;2.77;;;;;;;15.99;96.43;101327.91;4996157;28;20449;-72
2021/07/23 02:10:26;;;;;;;8.07;4.00;;;;;;;15.93;96.68;101326.44;4995978;28;20507;-72
2021/07/23 02:12:52;;;;;;;4.20;3.07;;;;;;;15.90;96.36;101322.44;4996151;28;20442;-73
2021/07/23 02:15:20;;;;;;;4.53;2.87;;;;;;;15.77;100.00;101320.63;4996041;28;20448;-72
2021/07/23 02:17:47;;;;;;;6.13;3.13;;;;;;;15.76;100.00;101319.00;4995974;28;20874;-72
2021/07/23 02:20:13;;;;;;;5.50;3.80;;;;;;;15.84;100.00;101312.75;4995952;28;20461;-73
2021/07/23 02:22:40;;;;;;;5.50;2.87;;;;;;;15.75;100.00;101315.47;4995917;28;20445;-73
2021/07/23 02:25:07;;;;;;;4.90;2.90;;;;;;;15.78;100.00;101325.78;4995954;28;20452;-73
2021/07/23 02:27:34;;;;;;;5.80;2.70;;;;;;;15.69;100.00;101321.41;4996059;28;20445;-75
2021/07/23 02:30:00;;;;;;;8.60;4.20;;;;;;;15.69;100.00;101321.41;4995761;28;20473;-72
2021/07/23 02:32:28;;;;;;;4.73;2.97;;;;;;;15.75;100.00;101320.94;4995716;28;20445;-72
2021/07/23 02:34:55;;;;;;;5.80;2.57;;;;;;;15.78;100.00;101320.31;4995738;28;20460;-73
2021/07/23 02:37:21;;;;;;;6.03;3.67;;;;;;;15.79;100.00;101321.09;4995573;28;20492;-73
2021/07/23 02:39:47;;;;;;;5.43;2.93;;;;;;;15.81;100.00;101314.22;4995145;28;20460;-73
2021/07/23 02:42:14;;;;;;;6.00;3.43;;;;;;;15.83;100.00;101309.22;4995593;28;20445;-73
2021/07/23 02:44:40;;;;;;;9.10;3.10;;;;;;;15.79;100.00;101316.44;4995522;28;20497;-73
2021/07/23 02:47:07;;;;;;;6.20;3.10;;;;;;;15.74;100.00;101313.88;4995509;28;20433;-72
2021/07/23 02:49:34;;;;;;;5.30;2.93;;;;;;;15.66;100.00;101319.31;4995325;28;20448;-73
2021/07/23 02:52:01;;;;;;;6.03;3.33;;;;;;;15.67;100.00;101305.34;4995403;28;20449;-73
2021/07/23 02:54:27;;;;;;;4.50;2.67;;;;;;;15.73;100.00;101312.25;4995341;28;20445;-73
2021/07/23 02:56:54;;;;;;;4.70;2.90;;;;;;;15.76;100.00;101308.06;4995214;28;20909;-73
2021/07/23 02:59:20;;;;;;;5.20;2.93;;;;;;;15.81;100.00;101314.22;4995253;28;20480;-74
2021/07/23 03:01:47;;;;;;;10.00;3.97;;;;;;;15.88;100.00;101305.53;4994896;28;20997;-74
2021/07/23 03:04:13;;;;;;;7.13;3.27;;;;;;;15.79;100.00;101305.53;4995410;28;20449;-74
2021/07/23 03:06:41;;;;;;;6.80;3.47;;;;;;;15.79;100.00;101310.97;4995107;28;20444;-74
2021/07/23 03:09:07;;;;;;;6.53;2.80;;;;;;;15.78;100.00;101306.66;4994728;28;20817;-74
2021/07/23 03:11:34;;;;;;;4.50;2.93;;;;;;;15.83;98.60;101306.50;4994806;28;20473;-74
2021/07/23 03:14:00;;;;;;;7.90;3.33;;;;;;;15.89;99.18;101316.16;4994980;28;20452;-74
2021/07/23 03:16:26;;;;;;;2.43;2.07;;;;;;;15.87;98.61;101314.88;4994621;28;21006;-74
2021/07/23 03:18:53;;;;;;;5.10;3.97;;;;;;;15.79;97.91;101305.53;4994889;28;20457;-74
2021/07/23 03:21:21;;;;;;;3.87;2.77;;;;;;;15.80;98.04;101306.31;4994489;28;20916;-74
2021/07/23 03:23:50;;;;;;;7.30;3.40;;;;;;;15.78;99.56;101298.44;4994797;28;20480;-74
2021/07/23 03:26:16;;;;;;;8.07;3.47;;;;;;;15.74;100.00;101304.88;4994691;28;20453;-73
2021/07/23 03:28:43;;;;;;;5.93;3.43;;;;;;;15.74;100.00;101302.94;4994676;28;20814;-73
2021/07/23 03:31:12;;;;;;;6.83;3.90;;;;;;;15.83;100.00;101302.97;4994254;28;20480;-74
2021/07/23 03:33:39;;;;;;;5.30;3.87;;;;;;;15.82;100.00;101299.44;4994870;28;20479;-74
2021/07/23 03:36:05;;;;;;;8.97;3.30;;;;;;;15.82;100.00;101293.97;4994437;28;20485;-74
2021/07/23 03:38:32;;;;;;;6.67;3.47;;;;;;;15.81;100.00;101295.09;4994538;28;20448;-74
2021/07/23 03:40:59;;;;;;;5.63;4.67;;;;;;;15.75;100.00;101301.81;4994439;28;20469;-74
2021/07/23 03:43:26;;;;;;;6.40;3.20;;;;;;;15.78;100.00;101290.25;4994433;28;20872;-74
2021/07/23 03:45:52;;;;;;;8.50;3.80;;;;;;;15.84;100.00;101301.81;4994412;28;20543;-73
2021/07/23 03:48:19;;;;;;;6.23;3.43;;;;;;;15.81;99.40;101292.38;4994366;28;20452;-72
2021/07/23 03:50:45;;;;;;;3.97;2.90;;;;;;;15.71;98.65;101291.84;4994296;28;20468;-73
2021/07/23 03:53:12;;;;;;;6.27;3.73;;;;;;;15.78;97.38;101293.00;4994490;28;20444;-72
2021/07/23 03:55:38;;;;;;;5.23;3.30;;;;;;;15.87;97.06;101301.19;4994168;28;20954;-72
2021/07/23 03:58:06;;;;;;;7.03;3.20;;;;;;;15.89;99.54;101307.13;4994107;28;20485;-73
2021/07/23 04:00:32;;;;;;;8.10;3.60;;;;;;;15.91;100.00;101301.38;4994112;28;20472;-73
2021/07/23 04:02:59;;;;;;;5.03;3.00;;;;;;;15.92;100.00;101298.31;4994097;28;20452;-72
2021/07/23 04:05:25;;;;;;;8.03;2.80;;;;;;;16.02;100.00;101302.66;4994074;28;20448;-72
2021/07/23 04:07:52;;;;;;;5.20;3.60;;;;;;;16.06;100.00;101290.75;4994098;28;20445;-72
2021/07/23 04:10:19;;;;;;;8.50;4.87;;;;;;;16.11;100.00;101298.00;4993790;28;20998;-73
2021/07/23 04:12:45;;;;;;;4.83;3.30;;;;;;;16.10;100.00;101291.72;4994038;28;20839;-73
2021/07/23 04:15:13;;;;;;;5.20;2.80;;;;;;;16.21;100.00;101294.97;4993944;28;20448;-73
2021/07/23 04:17:39;;;;;;;6.40;3.87;;;;;;;16.25;100.00;101295.13;4993587;28;20843;-73
2021/07/23 04:20:07;;;;;;;6.00;3.43;;;;;;;16.31;100.00;101299.31;4993849;28;20461;-73
2021/07/23 04:22:34;;;;;;;5.87;3.50;;;;;;;16.29;100.00;101298.81;4993171;28;20455;-73
2021/07/23 04:25:00;;;;;;;5.93;4.90;;;;;;;16.34;100.00;101299.47;4993849;28;20453;-73
2021/07/23 04:27:27;;;;;;;7.87;4.50;;;;;;;16.39;100.00;101296.56;4993842;28;20433;-73
2021/07/23 04:29:53;;;;;;;5.93;4.27;;;;;;;16.49;100.00;101297.38;4993482;28;20827;-72
2021/07/23 04:32:21;;;;;;;5.13;3.10;;;;;;;16.56;100.00;101306.69;4993745;28;20851;-73
2021/07/23 04:34:47;;;;;;;6.40;4.00;;;;;;;16.65;100.00;101299.28;4993793;28;20454;-74
2021/07/23 04:37:14;;;;;;;11.63;3.90;;;;;;;16.67;100.00;101307.16;4993650;28;20485;-74
2021/07/23 04:39:40;;;;;;;8.50;4.20;;;;;;;16.65;100.00;101309.41;4993655;28;20444;-73
2021/07/23 04:42:08;;;;;;;8.17;4.80;;;;;;;16.62;100.00;101304.59;4993387;28;20969;-73
2021/07/23 04:44:35;;;;;;;9.43;4.77;;;;;;;16.57;100.00;101305.56;4993925;28;20449;-73
2021/07/23 04:47:01;;;;;;;6.30;4.20;;;;;;;16.49;100.00;101303.63;4993606;28;20444;-73
2021/07/23 04:49:29;;;;;;;8.07;4.83;;;;;;;16.45;100.00;101304.59;4993560;28;20445;-72
2021/07/23 04:51:56;;;;;;;7.47;4.40;;;;;;;16.48;100.00;101309.44;4993629;28;20456;-73
2021/07/23 04:54:22;;;;;;;5.57;3.80;;;;;;;16.46;100.00;101304.28;4993585;28;20448;-73
2021/07/23 04:56:51;;;;;;;8.53;4.33;;;;;;;16.41;100.00;101296.25;4993473;28;20491;-73
2021/07/23 04:59:18;;;;;;;8.63;4.40;;;;;;;16.40;100.00;101300.09;4993217;28;20449;-74
2021/07/23 05:01:44;;;;;;;7.07;3.90;;;;;;;16.42;100.00;101297.84;4993416;28;20469;-73
2021/07/23 05:04:11;;;;;;;7.73;3.50;;;;;;;16.49;100.00;101298.16;4993450;28;20441;-74
2021/07/23 05:06:39;;;;;;;5.67;3.47;;;;;;;16.52;100.00;101291.25;4993522;28;20445;-74
2021/07/23 05:09:06;;;;;;;8.60;3.67;;;;;;;16.54;100.00;101298.00;4993393;28;20444;-73
2021/07/23 05:11:34;;;;;;;7.73;4.60;;;;;;;16.58;100.00;101296.22;4993136;28;20504;-73
2021/07/23 05:14:01;;;;;;;9.03;4.67;;;;;;;16.56;100.00;101303.97;4993308;28;20452;-72
2021/07/23 05:16:28;;;;;;;6.80;4.77;;;;;;;16.52;100.00;101303.00;4993269;28;20444;-72
2021/07/23 05:18:55;;;;;;;7.50;4.03;;;;;;;16.57;100.00;101300.09;4993405;28;20448;-72
2021/07/23 05:21:21;;;;;;;4.80;3.27;;;;;;;16.66;100.00;101300.06;4993258;28;20466;-72
2021/07/23 05:23:49;;;;;;;4.77;2.90;;;;;;;16.67;100.00;101298.94;4993370;28;20445;-72
2021/07/23 05:26:15;;;;;;;9.13;4.47;;;;;;;16.78;100.00;101302.19;4993273;28;20495;-72
2021/07/23 05:28:42;;;;;;;5.93;3.90;;;;;;;16.80;100.00;101299.91;4992992;28;20957;-72
2021/07/23 05:31:08;;;;;;;5.43;4.10;;;;;;;16.82;100.00;101293.00;4993150;28;20881;-72
2021/07/23 05:33:35;;;;;;;7.80;4.60;;;;;;;16.93;100.00;101292.66;4995439;28;20472;-72
2021/07/23 05:36:01;;;;;;;8.20;3.60;;;;;;;17.03;100.00;101306.78;4996731;28;20449;-72
2021/07/23 05:38:28;;;;;;;8.77;4.27;;;;;;;17.11;100.00;101302.41;4996649;28;20911;-73
2021/07/23 05:40:56;;;;;;;11.77;4.57;;;;;;;17.18;100.00;101294.50;4996644;28;20485;-73
2021/07/23 05:43:22;;;;;;;4.90;3.13;;;;;;;17.21;100.00;101298.50;4996709;28;20449;-73
2021/07/23 05:45:49;;;;;;;6.77;3.90;;;;;;;17.23;100.00;101288.03;4996620;28;20449;-73
2021/07/23 05:48:15;;;;;;;7.50;4.13;;;;;;;17.29;100.00;101290.25;4996219;28;20855;-73
2021/07/23 05:50:43;;;;;;;9.90;4.23;;;;;;;17.29;100.00;101298.47;4996740;28;20465;-73
2021/07/23 05:53:09;;;;;;;11.30;4.00;;;;;;;17.32;100.00;101289.59;4996405;28;20448;-74
2021/07/23 05:55:35;;;;;;;6.37;3.80;;;;;;;17.39;100.00;101300.03;4996575;28;20461;-72
2021/07/23 05:58:03;;;;;;;8.67;4.30;;;;;;;17.54;100.00;101285.00;4996036;28;21009;-72
2021/07/23 06:00:30;;;;;;;8.43;3.87;;;;;;;17.65;100.00;101286.19;4996275;28;20460;-72
2021/07/23 06:03:02;;;;;;;6.77;3.80;;;;;;;17.72;100.00;101291.97;4996320;28;20441;-71
2021/07/23 06:05:29;;;;;;;13.17;4.40;;;;;;;17.79;100.00;101292.25;4996278;28;20512;-73
2021/07/23 06:07:55;;;;;;;8.03;4.73;;;;;;;17.88;100.00;101287.56;4996265;28;20441;-72
2021/07/23 06:10:22;;;;;;;4.50;3.60;;;;;;;17.74;100.00;101295.19;4995728;28;20480;-72
2021/07/23 06:12:48;;;;;;;6.50;4.10;;;;;;;17.86;100.00;101298.03;4996170;28;20424;-74
2021/07/23 06:15:16;;;;;;;8.80;4.07;;;;;;;17.96;100.00;101298.75;4996064;28;20441;-73
2021/07/23 06:17:42;;;;;;;9.60;4.37;;;;;;;18.05;100.00;101305.00;4995698;28;20488;-73
2021/07/23 06:20:10;;;;;;;7.73;3.80;;;;;;;18.17;100.00;101302.31;4995878;28;20465;-73
2021/07/23 06:22:36;;;;;;;4.77;3.27;;;;;;;18.27;100.00;101290.94;4995997;28;20855;-73
2021/07/23 06:25:03;;;;;;;8.17;4.67;;;;;;;18.34;99.10;101299.44;4995915;28;20441;-73
2021/07/23 06:27:29;;;;;;;11.53;3.73;;;;;;;18.44;98.61;101297.41;4995614;28;20452;-73
2021/07/23 06:29:56;;;;;;;8.50;5.03;;;;;;;18.52;97.41;101302.03;4995764;28;20465;-73
2021/07/23 06:32:26;;;;;;;6.00;3.10;;;;;;;18.58;96.76;101304.22;4995972;28;20449;-73
2021/07/23 06:34:52;;;;;;;5.27;2.77;;;;;;;18.63;96.84;101306.75;4995464;28;20797;-73
2021/07/23 06:37:21;;;;;;;6.23;3.90;;;;;;;18.73;95.71;101305.56;4995270;28;20998;-73
2021/07/23 06:39:48;;;;;;;6.30;3.50;;;;;;;18.82;95.51;101306.28;4995586;28;20505;-73
2021/07/23 06:42:15;;;;;;;9.33;3.40;;;;;;;18.86;95.95;101306.41;4995604;28;20468;-73
2021/07/23 06:44:42;;;;;;;9.33;3.87;;;;;;;18.97;95.24;101307.56;4994774;28;20457;-73
2021/07/23 06:47:08;;;;;;;6.87;4.10;;;;;;;19.07;94.25;101309.06;4995478;28;20456;-73
2021/07/23 06:49:36;;;;;;;5.73;3.27;;;;;;;19.15;93.24;101302.66;4995433;28;20445;-73
2021/07/23 06:52:03;;;;;;;7.07;2.63;;;;;;;19.19;92.25;101314.56;4995348;28;20453;-73
2021/07/23 06:54:29;;;;;;;5.97;3.23;;;;;;;19.29;91.95;101313.31;4995411;28;20449;-73
2021/07/23 06:56:56;;;;;;;5.17;3.50;;;;;;;19.37;91.33;101309.66;4994982;28;20972;-73
2021/07/23 06:59:23;;;;;;;7.30;3.07;;;;;;;19.46;91.16;101309.56;4994949;28;20938;-73
2021/07/23 07:01:49;;;;;;;6.57;4.13;;;;;;;19.51;89.57;101309.31;4995141;28;20465;-73
2021/07/23 07:04:16;;;;;;;6.73;3.63;;;;;;;19.65;88.79;101298.81;4995180;28;20448;-73
2021/07/23 07:06:43;;;;;;;5.43;3.47;;;;;;;19.79;86.97;101309.44;4995286;28;20452;-73
2021/07/23 07:09:10;;;;;;;3.43;2.60;;;;;;;19.92;86.12;101305.53;4994949;28;20463;-73
2021/07/23 07:11:36;;;;;;;4.57;3.10;;;;;;;20.10;84.94;101297.84;4994612;28;20487;-73
2021/07/23 07:14:02;;;;;;;5.50;2.73;;;;;;;20.18;81.90;101302.38;4994975;28;20445;-74
2021/07/23 07:16:29;;;;;;;4.47;2.63;;;;;;;20.36;80.90;101303.72;4994971;28;20473;-73
2021/07/23 07:18:55;;;;;;;5.83;2.70;;;;;;;20.50;79.74;101306.09;4994765;28;20493;-73
2021/07/23 07:21:22;;;;;;;3.50;2.70;;;;;;;20.65;79.19;101299.00;4994745;28;20519;-73
2021/07/23 07:23:49;;;;;;;3.87;2.73;;;;;;;20.80;79.93;101312.00;4994716;28;20449;-72
2021/07/23 07:26:16;;;;;;;3.53;2.40;;;;;;;20.88;79.96;101305.53;5018617;22;20496;-83
2021/07/23 07:28:42;;;;;;;4.90;3.00;;;;;;;20.90;81.45;101306.00;5015863;28;20453;-83
2021/07/23 07:31:09;;;;;;;3.83;2.60;;;;;;;20.96;81.29;101311.25;5016139;28;20445;-83
2021/07/23 07:33:35;;;;;;;2.80;2.17;;;;;;;21.03;81.05;101311.41;5016054;28;20468;-83
2021/07/23 07:36:02;;;;;;;4.77;2.83;;;;;;;21.09;79.38;101304.50;5015274;28;20472;-81
2021/07/23 07:38:36;;;;;;;5.20;3.13;;;;;;;21.21;78.67;101304.41;5015664;28;20499;-83
2021/07/23 07:41:04;;;;;;;6.03;2.73;;;;;;;21.34;78.87;101310.66;5015796;28;20510;-83
2021/07/23 07:43:31;;;;;;;5.23;3.20;;;;;;;21.25;77.67;101305.31;5014763;28;20989;-83
2021/07/23 07:45:57;;;;;;;6.00;2.50;;;;;;;21.32;77.64;101302.75;5015285;28;20447;-84
2021/07/23 07:48:23;;;;;;;4.23;3.07;;;;;;;21.29;77.46;101308.91;5017640;28;20448;-83
2021/07/23 07:50:50;;;;;;;3.27;2.57;;;;;;;21.25;74.64;101316.34;5016050;28;20431;-82
2021/07/23 07:53:18;;;;;;;4.83;2.30;;;;;;;21.21;75.15;101312.69;5016562;28;20893;-83
2021/07/23 07:55:44;;;;;;;4.37;2.30;;;;;;;21.30;75.51;101310.53;5016081;28;20475;-82
2021/07/23 07:58:12;;;;;;;4.87;2.77;;;;;;;21.28;77.30;101312.84;5015175;28;20488;-82
2021/07/23 08:00:38;;;;;;;10.00;4.40;;;;;;;21.32;76.93;101319.28;5015287;28;20455;-81
2021/07/23 08:03:05;;;;;;;6.10;3.83;;;;;;;21.38;77.72;101315.13;5014749;28;20432;-82
2021/07/23 08:05:31;;;;;;;5.87;2.97;;;;;;;21.41;76.67;101313.59;5014576;28;20433;-82
2021/07/23 08:07:59;;;;;;;6.00;3.50;;;;;;;21.50;74.76;101314.19;5014738;28;20440;-83
2021/07/23 08:10:26;;;;;;;5.33;3.40;;;;;;;21.52;73.82;101322.13;5014827;28;20448;-83
2021/07/23 08:12:53;;;;;;;3.03;2.10;;;;;;;21.56;70.47;101315.53;5014666;28;20941;-81
2021/07/23 08:15:22;;;;;;;3.77;2.63;;;;;;;21.64;71.04;101311.75;5014764;28;20444;-83
2021/07/23 08:17:48;;;;;;;4.70;2.57;;;;;;;21.73;69.89;101316.28;5014777;28;20472;-80
2021/07/23 08:20:15;;;;;;;4.63;2.73;;;;;;;21.76;70.43;101324.66;5014801;28;20446;-81
2021/07/23 08:22:42;;;;;;;3.50;2.30;;;;;;;21.77;71.12;101315.22;5015398;28;20527;-82
2021/07/23 08:25:09;;;;;;;3.93;2.33;;;;;;;21.82;69.53;101316.88;5014373;28;21015;-84
2021/07/23 08:27:36;;;;;;;4.50;3.00;;;;;;;21.92;69.36;101319.09;5014867;28;20436;-82
2021/07/23 08:30:02;;;;;;;4.43;3.00;;;;;;;21.91;69.07;101323.84;5014593;28;20440;-82
2021/07/23 08:32:36;;;;;;;4.60;2.90;;;;;;;21.77;67.40;101317.16;5014440;28;20448;-81
2021/07/23 08:35:04;;;;;;;5.27;2.60;;;;;;;21.59;66.96;101306.53;5014351;28;20464;-82
2021/07/23 08:37:30;;;;;;;3.53;2.13;;;;;;;21.77;67.42;101306.94;5014334;28;20440;-81
2021/07/23 08:39:57;;;;;;;4.67;2.40;;;;;;;22.00;66.87;101307.06;5014535;28;20452;-81
2021/07/23 08:42:25;;;;;;;2.00;1.80;;;;;;;22.24;66.10;101311.53;5014209;28;20459;-79
2021/07/23 08:44:52;;;;;;;3.83;2.40;;;;;;;22.40;65.46;101309.53;5013830;28;20870;-80
2021/07/23 08:47:20;;;;;;;4.00;2.30;;;;;;;22.55;65.35;101312.56;5014015;28;20957;-81
2021/07/23 08:49:48;;;;;;;4.10;2.57;;;;;;;22.73;67.62;101308.16;5013970;28;20968;-82
2021/07/23 08:52:14;;;;;;;4.37;2.47;;;;;;;22.72;65.67;101314.88;5014832;28;20811;-83
2021/07/23 08:54:41;;;;;;;4.30;3.00;;;;;;;22.75;66.00;101318.84;5014899;28;20456;-82
2021/07/23 08:57:08;;;;;;;5.50;3.67;;;;;;;22.71;64.66;101312.44;5014378;28;20451;-83
2021/07/23 08:59:35;;;;;;;3.90;2.70;;;;;;;22.79;64.05;101314.97;5014593;28;20524;-81
2021/07/23 09:02:04;;;;;;;4.10;3.03;;;;;;;22.84;64.85;101303.66;5014155;28;20783;-84
2021/07/23 09:04:32;;;;;;;5.50;3.40;;;;;;;22.65;65.60;101306.44;5014782;28;20468;-81
2021/07/23 09:07:31;;;;;;;3.77;2.60;;;;;;;22.78;67.97;101304.31;5014609;28;20475;-80
2021/07/23 09:10:05;;;;;;;4.93;2.87;;;;;;;22.88;66.80;101301.72;5017877;28;20452;-81
2021/07/23 09:12:42;;;;;;;4.90;3.00;;;;;;;22.92;67.34;101297.09;5018181;28;20429;-81
2021/07/23 09:15:19;;;;;;;6.60;3.17;;;;;;;22.97;67.85;101300.72;5018055;28;20475;-81
2021/07/23 09:17:46;;;;;;;4.00;2.60;;;;;;;23.05;66.15;101302.44;5018949;28;20440;-81
2021/07/23 09:20:14;;;;;;;3.10;2.53;;;;;;;22.87;66.46;101293.81;5017931;28;20949;-83
2021/07/23 09:22:46;;;;;;;5.33;3.47;;;;;;;22.73;67.14;101296.31;5017730;28;20436;-80
2021/07/23 09:25:13;;;;;;;5.00;2.83;;;;;;;22.70;67.75;101289.56;5017475;28;20479;-82
2021/07/23 09:27:40;;;;;;;3.70;2.37;;;;;;;22.74;66.84;101286.88;5018383;28;20428;-82
2021/07/23 09:30:09;;;;;;;8.30;2.70;;;;;;;22.71;66.40;101290.34;5017754;28;20447;-80
2021/07/23 09:32:36;;;;;;;4.60;2.70;;;;;;;22.51;65.37;101284.06;5017976;28;20539;-81
2021/07/23 09:35:11;;;;;;;5.93;3.80;;;;;;;22.48;66.30;101279.28;5016936;28;20973;-80
2021/07/23 09:37:57;;;;;;;3.07;2.30;;;;;;;22.49;67.80;101275.34;5017922;28;20455;-83
2021/07/23 09:40:24;;;;;;;8.87;3.23;;;;;;;22.49;67.18;101278.09;5017740;28;20432;-82
2021/07/23 09:42:57;;;;;;;5.50;3.20;;;;;;;22.68;67.19;101269.81;5019286;28;20444;-82
2021/07/23 09:45:28;;;;;;;3.40;2.37;;;;;;;22.86;67.55;101279.19;5027824;28;20455;-82
2021/07/23 09:48:08;;;;;;;4.27;2.93;;;;;;;23.12;68.92;101272.19;5040117;28;20454;-83
2021/07/23 09:50:39;;;;;;;6.03;3.03;;;;;;;23.25;68.79;101275.53;5038890;28;20419;-84
2021/07/23 09:53:08;;;;;;;5.57;3.70;;;;;;;23.38;66.40;101277.72;5039612;28;20527;-82
2021/07/23 09:55:35;;;;;;;4.03;2.53;;;;;;;23.36;65.47;101266.22;5040803;28;20450;-83
2021/07/23 09:58:07;;;;;;;3.70;2.70;;;;;;;23.48;65.76;101267.19;5039664;28;20435;-82
2021/07/23 10:00:37;;;;;;;9.73;3.00;;;;;;;23.46;65.10;101266.75;5041829;28;20428;-84
2021/07/23 10:03:06;;;;;;;3.40;2.53;;;;;;;23.39;64.99;101268.25;5040467;28;20431;-83
2021/07/23 10:05:37;;;;;;;10.73;3.87;;;;;;;23.31;65.16;101266.56;5039214;28;20470;-82
2021/07/23 10:08:08;;;;;;;3.80;2.50;;;;;;;23.35;67.05;101266.59;5038558;28;20475;-83
2021/07/23 10:10:37;;;;;;;3.40;2.37;;;;;;;23.44;64.74;101258.84;5038986;28;20424;-83
2021/07/23 10:13:05;;;;;;;6.43;3.10;;;;;;;23.44;63.35;101258.06;5039270;28;20834;-82
2021/07/23 10:15:32;;;;;;;6.83;3.30;;;;;;;23.46;64.12;101262.03;5039194;28;20463;-82
2021/07/23 10:18:00;;;;;;;3.50;2.87;;;;;;;23.60;63.13;101267.78;5037822;28;21004;-83
2021/07/23 10:20:27;;;;;;;4.70;3.50;;;;;;;23.58;65.52;101258.25;5038171;28;20466;-83
2021/07/23 10:22:56;;;;;;;4.20;2.37;;;;;;;23.72;64.60;101252.94;5037860;28;20435;-80
2021/07/23 10:25:24;;;;;;;4.00;3.00;;;;;;;23.73;62.99;101254.56;5036459;28;20474;-81
2021/07/23 10:27:51;;;;;;;3.63;2.40;;;;;;;23.78;62.11;101257.00;5036368;28;20458;-82
2021/07/23 10:30:29;;;;;;;6.73;4.50;;;;;;;23.84;61.12;101255.50;5036144;28;20526;-81
2021/07/23 10:32:56;;;;;;;7.03;3.63;;;;;;;23.95;61.86;101250.09;5036830;28;20423;-81
2021/07/23 10:35:34;;;;;;;7.27;3.87;;;;;;;24.14;60.99;101249.16;5037258;28;20443;-82
2021/07/23 10:38:02;;;;;;;4.70;3.05;;;;;;;24.32;59.14;101247.38;5036393;28;20427;-80
2021/07/23 10:40:38;;;;;;;4.73;3.23;;;;;;;24.23;59.31;101238.56;5036280;28;20463;-82
2021/07/23 10:43:37;;;;;;;6.07;4.00;;;;;;;24.33;61.28;101232.34;5036229;28;20788;-80
2021/07/23 10:46:05;;;;;;;6.50;2.93;;;;;;;24.36;60.83;101234.38;5037210;28;20467;-81
2021/07/23 10:48:45;;;;;;;4.73;2.83;;;;;;;24.57;60.84;101235.78;5036263;28;20454;-81
2021/07/23 10:51:48;;;;;;;8.70;2.77;;;;;;;24.71;57.35;101241.47;5035927;28;20486;-82
2021/07/23 10:54:14;;;;;;;7.20;3.77;;;;;;;24.59;58.08;101238.97;5037882;28;21065;-82
2021/07/23 10:57:13;;;;;;;5.47;3.40;;;;;;;24.40;57.62;101240.78;5036164;28;20812;-83
2021/07/23 10:59:51;;;;;;;5.13;3.40;;;;;;;24.50;58.34;101236.50;5019518;28;20514;-82
2021/07/23 11:02:43;;;;;;;5.80;3.40;;;;;;;24.58;60.01;101229.06;5035304;28;20948;-80
2021/07/23 11:05:11;;;;;;;6.00;3.03;;;;;;;24.77;59.98;101239.16;5035351;28;20452;-81
2021/07/23 11:07:38;;;;;;;4.53;2.80;;;;;;;24.72;59.80;101234.75;5035605;28;20451;-81
2021/07/23 11:10:05;;;;;;;6.53;3.03;;;;;;;24.76;62.21;101226.47;5035851;28;20466;-81
2021/07/23 11:12:40;;;;;;;5.17;3.10;;;;;;;24.78;59.54;101232.41;5035979;28;20447;-82
2021/07/23 11:15:08;;;;;;;3.57;2.80;;;;;;;24.78;61.07;101227.66;5036307;28;20542;-81
2021/07/23 11:17:49;;;;;;;5.00;2.97;;;;;;;24.86;62.28;101226.56;5035666;28;20489;-82
2021/07/23 11:20:16;;;;;;;6.13;3.00;;;;;;;24.73;58.57;101233.56;5035434;28;20466;-81
2021/07/23 11:22:49;;;;;;;6.60;3.60;;;;;;;25.00;58.48;101230.63;5036863;28;20483;-82
2021/07/23 11:25:17;;;;;;;4.07;2.77;;;;;;;25.47;57.77;101226.22;5036119;28;20486;-81